Apgar, Montana
Current Conditions -  °F | °C
As of 10:55 AM on Monday 24 Nov 2014 (Local Time) from KGPI Reporting Station
Broken Clouds Broken Clouds  
Wind Chill: 30°   Ceiling: 5000
Heat Index: 37°   Visibility: 10mi
Dew Point: 28°   Wind: 10mph
Humidity: 70%   Direction: 210°SSW
Pressure: 30.26"   Gusts: NA
Location:  48.5033°N, 113.981°W
Report Text: KGPI 241755Z 21009KT 10SM FEW044 BKN050 03/M02 A3026 RMK AO2 SLP270 T00281022 10028 21017 51022
Loading
Personal Weather Stations






























Interactive Weather Map New forecast layout! Learn more

10-Day Weather Forecast

Advertisements
Track Severe Weather on mobile